sensor_id;sensor_type;location;lat;lon;timestamp;temperature;humidity
63976;DHT22;50167;47.958;21.780;2022-07-10T00:00:52;17.53;50.81
63976;DHT22;50167;47.958;21.780;2022-07-10T00:03:19;17.54;51.32
63976;DHT22;50167;47.958;21.780;2022-07-10T00:05:45;17.56;50.77
63976;DHT22;50167;47.958;21.780;2022-07-10T00:08:11;17.57;50.73
63976;DHT22;50167;47.958;21.780;2022-07-10T00:10:37;17.60;50.84
63976;DHT22;50167;47.958;21.780;2022-07-10T00:13:02;17.62;50.93
63976;DHT22;50167;47.958;21.780;2022-07-10T00:15:28;17.62;51.35
63976;DHT22;50167;47.958;21.780;2022-07-10T00:17:56;17.62;51.07
63976;DHT22;50167;47.958;21.780;2022-07-10T00:20:22;17.62;51.14
63976;DHT22;50167;47.958;21.780;2022-07-10T00:22:48;17.60;51.01
63976;DHT22;50167;47.958;21.780;2022-07-10T00:25:14;17.58;50.92
63976;DHT22;50167;47.958;21.780;2022-07-10T00:27:41;17.60;51.22
63976;DHT22;50167;47.958;21.780;2022-07-10T00:30:09;17.56;50.90
63976;DHT22;50167;47.958;21.780;2022-07-10T00:32:36;17.56;50.94
63976;DHT22;50167;47.958;21.780;2022-07-10T00:35:03;17.60;50.94
63976;DHT22;50167;47.958;21.780;2022-07-10T00:37:29;17.56;51.69
63976;DHT22;50167;47.958;21.780;2022-07-10T00:39:55;17.56;51.19
63976;DHT22;50167;47.958;21.780;2022-07-10T00:42:21;17.56;51.52
63976;DHT22;50167;47.958;21.780;2022-07-10T00:44:47;17.57;51.39
63976;DHT22;50167;47.958;21.780;2022-07-10T00:47:13;17.54;51.31
63976;DHT22;50167;47.958;21.780;2022-07-10T00:49:41;17.53;51.34
63976;DHT22;50167;47.958;21.780;2022-07-10T00:52:09;17.50;51.62
63976;DHT22;50167;47.958;21.780;2022-07-10T00:54:35;17.50;51.74
63976;DHT22;50167;47.958;21.780;2022-07-10T00:57:03;17.52;51.71
63976;DHT22;50167;47.958;21.780;2022-07-10T00:59:31;17.47;51.67
63976;DHT22;50167;47.958;21.780;2022-07-10T01:01:57;17.47;51.88
63976;DHT22;50167;47.958;21.780;2022-07-10T01:04:24;17.46;52.52
63976;DHT22;50167;47.958;21.780;2022-07-10T01:06:51;17.43;52.36
63976;DHT22;50167;47.958;21.780;2022-07-10T01:09:22;17.45;52.28
63976;DHT22;50167;47.958;21.780;2022-07-10T01:11:48;17.46;52.54
63976;DHT22;50167;47.958;21.780;2022-07-10T01:14:15;17.42;52.19
63976;DHT22;50167;47.958;21.780;2022-07-10T01:16:43;17.45;52.39
63976;DHT22;50167;47.958;21.780;2022-07-10T01:19:09;17.43;52.33
63976;DHT22;50167;47.958;21.780;2022-07-10T01:21:36;17.39;52.31
63976;DHT22;50167;47.958;21.780;2022-07-10T01:24:07;17.37;52.29
63976;DHT22;50167;47.958;21.780;2022-07-10T01:26:35;17.37;52.38
63976;DHT22;50167;47.958;21.780;2022-07-10T01:29:07;17.39;53.18
63976;DHT22;50167;47.958;21.780;2022-07-10T01:31:33;17.36;52.80
63976;DHT22;50167;47.958;21.780;2022-07-10T01:34:01;17.37;52.64
63976;DHT22;50167;47.958;21.780;2022-07-10T01:36:31;17.37;52.51
63976;DHT22;50167;47.958;21.780;2022-07-10T01:38:58;17.37;52.88
63976;DHT22;50167;47.958;21.780;2022-07-10T01:41:25;17.36;53.05
63976;DHT22;50167;47.958;21.780;2022-07-10T01:43:51;17.37;52.98
63976;DHT22;50167;47.958;21.780;2022-07-10T01:46:18;17.37;54.04
63976;DHT22;50167;47.958;21.780;2022-07-10T01:48:44;17.35;53.56
63976;DHT22;50167;47.958;21.780;2022-07-10T01:51:10;17.35;53.67
63976;DHT22;50167;47.958;21.780;2022-07-10T01:53:37;17.33;53.15
63976;DHT22;50167;47.958;21.780;2022-07-10T01:56:07;17.36;53.01
63976;DHT22;50167;47.958;21.780;2022-07-10T01:58:34;17.36;53.01
63976;DHT22;50167;47.958;21.780;2022-07-10T02:01:01;17.35;53.25
63976;DHT22;50167;47.958;21.780;2022-07-10T02:03:27;17.35;53.97
63976;DHT22;50167;47.958;21.780;2022-07-10T02:06:11;17.35;53.08
63976;DHT22;50167;47.958;21.780;2022-07-10T02:08:37;17.37;53.69
63976;DHT22;50167;47.958;21.780;2022-07-10T02:11:03;17.37;53.33
63976;DHT22;50167;47.958;21.780;2022-07-10T02:13:29;17.39;53.05
63976;DHT22;50167;47.958;21.780;2022-07-10T02:15:55;17.39;53.09
63976;DHT22;50167;47.958;21.780;2022-07-10T02:18:21;17.40;53.62
63976;DHT22;50167;47.958;21.780;2022-07-10T02:20:48;17.42;53.59
63976;DHT22;50167;47.958;21.780;2022-07-10T02:23:14;17.42;53.64
63976;DHT22;50167;47.958;21.780;2022-07-10T02:25:40;17.42;54.08
63976;DHT22;50167;47.958;21.780;2022-07-10T02:28:08;17.46;53.87
63976;DHT22;50167;47.958;21.780;2022-07-10T02:30:34;17.47;53.38
63976;DHT22;50167;47.958;21.780;2022-07-10T02:33:00;17.49;53.61
63976;DHT22;50167;47.958;21.780;2022-07-10T02:35:26;17.52;53.41
63976;DHT22;50167;47.958;21.780;2022-07-10T02:37:51;17.56;53.08
63976;DHT22;50167;47.958;21.780;2022-07-10T02:40:17;17.57;53.00
63976;DHT22;50167;47.958;21.780;2022-07-10T02:42:44;17.58;53.18
63976;DHT22;50167;47.958;21.780;2022-07-10T02:45:10;17.63;52.87
63976;DHT22;50167;47.958;21.780;2022-07-10T02:47:36;17.64;53.05
63976;DHT22;50167;47.958;21.780;2022-07-10T02:50:02;17.64;52.82
63976;DHT22;50167;47.958;21.780;2022-07-10T02:52:28;17.67;53.04
63976;DHT22;50167;47.958;21.780;2022-07-10T02:54:56;17.69;52.71
63976;DHT22;50167;47.958;21.780;2022-07-10T02:57:22;17.72;52.72
63976;DHT22;50167;47.958;21.780;2022-07-10T02:59:48;17.70;52.60
63976;DHT22;50167;47.958;21.780;2022-07-10T03:02:14;17.72;52.57
63976;DHT22;50167;47.958;21.780;2022-07-10T03:04:40;17.72;52.45
63976;DHT22;50167;47.958;21.780;2022-07-10T03:07:06;17.74;52.72
63976;DHT22;50167;47.958;21.780;2022-07-10T03:09:32;17.76;52.65
63976;DHT22;50167;47.958;21.780;2022-07-10T03:11:57;17.77;52.65
63976;DHT22;50167;47.958;21.780;2022-07-10T03:14:23;17.78;52.59
63976;DHT22;50167;47.958;21.780;2022-07-10T03:16:49;17.80;52.53
63976;DHT22;50167;47.958;21.780;2022-07-10T03:19:15;17.78;52.65
63976;DHT22;50167;47.958;21.780;2022-07-10T03:21:41;17.78;52.72
63976;DHT22;50167;47.958;21.780;2022-07-10T03:24:07;17.76;52.69
63976;DHT22;50167;47.958;21.780;2022-07-10T03:26:33;17.73;52.76
63976;DHT22;50167;47.958;21.780;2022-07-10T03:28:59;17.73;52.76
63976;DHT22;50167;47.958;21.780;2022-07-10T03:31:25;17.70;53.04
63976;DHT22;50167;47.958;21.780;2022-07-10T03:33:51;17.67;53.15
63976;DHT22;50167;47.958;21.780;2022-07-10T03:36:18;17.67;53.81
63976;DHT22;50167;47.958;21.780;2022-07-10T03:38:44;17.63;53.53
63976;DHT22;50167;47.958;21.780;2022-07-10T03:41:13;17.63;53.52
63976;DHT22;50167;47.958;21.780;2022-07-10T03:43:39;17.62;53.54
63976;DHT22;50167;47.958;21.780;2022-07-10T03:46:05;17.60;53.63
63976;DHT22;50167;47.958;21.780;2022-07-10T03:48:32;17.57;53.76
63976;DHT22;50167;47.958;21.780;2022-07-10T03:50:59;17.57;54.20
63976;DHT22;50167;47.958;21.780;2022-07-10T03:53:25;17.56;54.05
63976;DHT22;50167;47.958;21.780;2022-07-10T03:55:51;17.57;54.03
63976;DHT22;50167;47.958;21.780;2022-07-10T03:58:17;17.56;54.00
63976;DHT22;50167;47.958;21.780;2022-07-10T04:00:43;17.58;54.25
63976;DHT22;50167;47.958;21.780;2022-07-10T04:03:11;17.57;54.30
63976;DHT22;50167;47.958;21.780;2022-07-10T04:05:37;17.56;54.73
63976;DHT22;50167;47.958;21.780;2022-07-10T04:08:04;17.57;54.65
63976;DHT22;50167;47.958;21.780;2022-07-10T04:10:31;17.58;54.68
63976;DHT22;50167;47.958;21.780;2022-07-10T04:12:57;17.58;54.65
63976;DHT22;50167;47.958;21.780;2022-07-10T04:15:23;17.63;54.67
63976;DHT22;50167;47.958;21.780;2022-07-10T04:17:50;17.67;55.04
63976;DHT22;50167;47.958;21.780;2022-07-10T04:20:17;17.69;54.74
63976;DHT22;50167;47.958;21.780;2022-07-10T04:22:43;17.78;54.78
63976;DHT22;50167;47.958;21.780;2022-07-10T04:25:10;17.85;54.85
63976;DHT22;50167;47.958;21.780;2022-07-10T04:27:36;17.93;54.79
63976;DHT22;50167;47.958;21.780;2022-07-10T04:30:03;17.98;54.79
63976;DHT22;50167;47.958;21.780;2022-07-10T04:32:29;18.07;54.95
63976;DHT22;50167;47.958;21.780;2022-07-10T04:34:55;18.07;54.97
63976;DHT22;50167;47.958;21.780;2022-07-10T04:37:21;18.11;54.90
63976;DHT22;50167;47.958;21.780;2022-07-10T04:39:47;18.16;54.80
63976;DHT22;50167;47.958;21.780;2022-07-10T04:42:13;18.22;54.73
63976;DHT22;50167;47.958;21.780;2022-07-10T04:44:39;18.25;54.80
63976;DHT22;50167;47.958;21.780;2022-07-10T04:47:06;18.26;54.81
63976;DHT22;50167;47.958;21.780;2022-07-10T04:49:32;18.28;54.79
63976;DHT22;50167;47.958;21.780;2022-07-10T04:51:59;18.25;54.80
63976;DHT22;50167;47.958;21.780;2022-07-10T04:54:25;18.25;54.84
63976;DHT22;50167;47.958;21.780;2022-07-10T04:56:51;18.25;55.05
63976;DHT22;50167;47.958;21.780;2022-07-10T04:59:17;18.21;54.94
63976;DHT22;50167;47.958;21.780;2022-07-10T05:01:42;18.22;55.30
63976;DHT22;50167;47.958;21.780;2022-07-10T05:04:08;18.26;55.85
63976;DHT22;50167;47.958;21.780;2022-07-10T05:06:34;18.31;55.55
63976;DHT22;50167;47.958;21.780;2022-07-10T05:09:01;18.37;55.91
63976;DHT22;50167;47.958;21.780;2022-07-10T05:11:27;18.52;55.74
63976;DHT22;50167;47.958;21.780;2022-07-10T05:13:53;18.66;56.02
63976;DHT22;50167;47.958;21.780;2022-07-10T05:16:19;18.81;55.49
63976;DHT22;50167;47.958;21.780;2022-07-10T05:18:45;18.95;55.67
63976;DHT22;50167;47.958;21.780;2022-07-10T05:21:11;19.09;55.64
63976;DHT22;50167;47.958;21.780;2022-07-10T05:23:38;19.27;55.21
63976;DHT22;50167;47.958;21.780;2022-07-10T05:26:05;19.42;54.90
63976;DHT22;50167;47.958;21.780;2022-07-10T05:28:31;19.63;54.88
63976;DHT22;50167;47.958;21.780;2022-07-10T05:30:57;19.77;54.36
63976;DHT22;50167;47.958;21.780;2022-07-10T05:33:22;19.88;54.05
63976;DHT22;50167;47.958;21.780;2022-07-10T05:35:48;20.01;53.96
63976;DHT22;50167;47.958;21.780;2022-07-10T05:38:14;20.15;53.68
63976;DHT22;50167;47.958;21.780;2022-07-10T05:40:43;20.34;53.58
63976;DHT22;50167;47.958;21.780;2022-07-10T05:43:09;20.51;52.86
63976;DHT22;50167;47.958;21.780;2022-07-10T05:45:36;20.60;52.24
63976;DHT22;50167;47.958;21.780;2022-07-10T05:48:02;20.72;51.87
63976;DHT22;50167;47.958;21.780;2022-07-10T05:50:28;20.83;51.40
63976;DHT22;50167;47.958;21.780;2022-07-10T05:52:54;20.93;50.72
63976;DHT22;50167;47.958;21.780;2022-07-10T05:55:20;21.04;50.44
63976;DHT22;50167;47.958;21.780;2022-07-10T05:57:46;21.10;49.07
63976;DHT22;50167;47.958;21.780;2022-07-10T06:00:12;21.18;49.32
63976;DHT22;50167;47.958;21.780;2022-07-10T06:02:38;21.27;49.56
63976;DHT22;50167;47.958;21.780;2022-07-10T06:05:04;21.36;49.16
63976;DHT22;50167;47.958;21.780;2022-07-10T06:07:31;21.47;48.26
63976;DHT22;50167;47.958;21.780;2022-07-10T06:09:57;21.51;48.76
63976;DHT22;50167;47.958;21.780;2022-07-10T06:12:23;21.59;48.56
63976;DHT22;50167;47.958;21.780;2022-07-10T06:14:49;21.66;48.20
63976;DHT22;50167;47.958;21.780;2022-07-10T06:17:15;21.75;48.24
63976;DHT22;50167;47.958;21.780;2022-07-10T06:19:41;21.85;48.16
63976;DHT22;50167;47.958;21.780;2022-07-10T06:22:07;21.92;48.14
63976;DHT22;50167;47.958;21.780;2022-07-10T06:24:51;22.03;47.72
63976;DHT22;50167;47.958;21.780;2022-07-10T06:27:17;22.10;47.12
63976;DHT22;50167;47.958;21.780;2022-07-10T06:29:43;22.16;47.22
63976;DHT22;50167;47.958;21.780;2022-07-10T06:32:09;22.23;46.78
63976;DHT22;50167;47.958;21.780;2022-07-10T06:34:35;22.31;47.13
63976;DHT22;50167;47.958;21.780;2022-07-10T06:37:01;22.43;45.38
63976;DHT22;50167;47.958;21.780;2022-07-10T06:39:28;22.43;45.22
63976;DHT22;50167;47.958;21.780;2022-07-10T06:41:55;22.41;45.52
63976;DHT22;50167;47.958;21.780;2022-07-10T06:44:21;22.44;44.56
63976;DHT22;50167;47.958;21.780;2022-07-10T06:46:47;22.44;45.13
63976;DHT22;50167;47.958;21.780;2022-07-10T06:49:15;22.55;45.03
63976;DHT22;50167;47.958;21.780;2022-07-10T06:51:41;22.70;44.57
63976;DHT22;50167;47.958;21.780;2022-07-10T06:54:07;22.78;44.42
63976;DHT22;50167;47.958;21.780;2022-07-10T06:56:33;22.85;44.67
63976;DHT22;50167;47.958;21.780;2022-07-10T06:58:59;22.98;44.46
63976;DHT22;50167;47.958;21.780;2022-07-10T07:01:25;23.06;44.14
63976;DHT22;50167;47.958;21.780;2022-07-10T07:03:51;23.16;43.86
63976;DHT22;50167;47.958;21.780;2022-07-10T07:06:17;23.23;43.73
63976;DHT22;50167;47.958;21.780;2022-07-10T07:08:43;23.30;43.48
63976;DHT22;50167;47.958;21.780;2022-07-10T07:11:09;23.40;43.72
63976;DHT22;50167;47.958;21.780;2022-07-10T07:13:35;23.44;42.93
63976;DHT22;50167;47.958;21.780;2022-07-10T07:16:01;23.53;42.13
63976;DHT22;50167;47.958;21.780;2022-07-10T07:18:28;23.54;42.20
63976;DHT22;50167;47.958;21.780;2022-07-10T07:20:59;23.57;41.61
63976;DHT22;50167;47.958;21.780;2022-07-10T07:23:43;23.60;40.91
63976;DHT22;50167;47.958;21.780;2022-07-10T07:26:09;23.60;41.34
63976;DHT22;50167;47.958;21.780;2022-07-10T07:28:35;23.64;41.05
63976;DHT22;50167;47.958;21.780;2022-07-10T07:31:01;23.65;40.75
63976;DHT22;50167;47.958;21.780;2022-07-10T07:33:27;23.69;40.96
63976;DHT22;50167;47.958;21.780;2022-07-10T07:35:52;23.78;40.58
63976;DHT22;50167;47.958;21.780;2022-07-10T07:38:18;23.88;40.53
63976;DHT22;50167;47.958;21.780;2022-07-10T07:40:44;23.92;40.76
63976;DHT22;50167;47.958;21.780;2022-07-10T07:43:10;24.01;40.83
63976;DHT22;50167;47.958;21.780;2022-07-10T07:45:37;24.15;40.63
63976;DHT22;50167;47.958;21.780;2022-07-10T07:48:03;24.25;39.95
63976;DHT22;50167;47.958;21.780;2022-07-10T07:50:33;24.33;39.92
63976;DHT22;50167;47.958;21.780;2022-07-10T07:53:01;24.33;38.05
63976;DHT22;50167;47.958;21.780;2022-07-10T07:55:28;24.30;39.35
63976;DHT22;50167;47.958;21.780;2022-07-10T07:57:55;24.40;38.95
63976;DHT22;50167;47.958;21.780;2022-07-10T08:00:26;24.42;38.97
63976;DHT22;50167;47.958;21.780;2022-07-10T08:02:54;24.44;39.25
63976;DHT22;50167;47.958;21.780;2022-07-10T08:05:22;24.49;39.53
63976;DHT22;50167;47.958;21.780;2022-07-10T08:07:54;24.61;39.45
63976;DHT22;50167;47.958;21.780;2022-07-10T08:10:22;24.70;38.49
63976;DHT22;50167;47.958;21.780;2022-07-10T08:12:48;24.67;38.16
63976;DHT22;50167;47.958;21.780;2022-07-10T08:15:15;24.75;38.40
63976;DHT22;50167;47.958;21.780;2022-07-10T08:17:42;24.81;38.49
63976;DHT22;50167;47.958;21.780;2022-07-10T08:20:10;24.88;38.00
63976;DHT22;50167;47.958;21.780;2022-07-10T08:22:40;24.94;38.45
63976;DHT22;50167;47.958;21.780;2022-07-10T08:25:06;25.01;38.47
63976;DHT22;50167;47.958;21.780;2022-07-10T08:27:33;25.07;37.40
63976;DHT22;50167;47.958;21.780;2022-07-10T08:29:58;25.00;37.42
63976;DHT22;50167;47.958;21.780;2022-07-10T08:32:24;24.90;38.23
63976;DHT22;50167;47.958;21.780;2022-07-10T08:34:51;24.98;38.28
63976;DHT22;50167;47.958;21.780;2022-07-10T08:37:17;25.14;38.28
63976;DHT22;50167;47.958;21.780;2022-07-10T08:39:45;25.29;38.06
63976;DHT22;50167;47.958;21.780;2022-07-10T08:42:11;25.49;37.91
63976;DHT22;50167;47.958;21.780;2022-07-10T08:44:37;25.60;37.67
63976;DHT22;50167;47.958;21.780;2022-07-10T08:47:04;25.66;37.27
63976;DHT22;50167;47.958;21.780;2022-07-10T08:49:31;25.75;35.71
63976;DHT22;50167;47.958;21.780;2022-07-10T08:54:33;25.76;35.98
63976;DHT22;50167;47.958;21.780;2022-07-10T08:57:01;25.84;36.39
63976;DHT22;50167;47.958;21.780;2022-07-10T08:59:28;26.01;35.95
63976;DHT22;50167;47.958;21.780;2022-07-10T09:01:54;26.09;35.51
63976;DHT22;50167;47.958;21.780;2022-07-10T09:04:25;26.17;35.90
63976;DHT22;50167;47.958;21.780;2022-07-10T09:06:52;26.24;35.69
63976;DHT22;50167;47.958;21.780;2022-07-10T09:09:19;26.39;35.74
63976;DHT22;50167;47.958;21.780;2022-07-10T09:11:45;26.56;35.62
63976;DHT22;50167;47.958;21.780;2022-07-10T09:14:13;26.74;35.52
63976;DHT22;50167;47.958;21.780;2022-07-10T09:16:41;26.89;34.31
63976;DHT22;50167;47.958;21.780;2022-07-10T09:19:23;26.91;33.95
63976;DHT22;50167;47.958;21.780;2022-07-10T09:21:51;26.93;35.15
63976;DHT22;50167;47.958;21.780;2022-07-10T09:24:18;27.10;34.91
63976;DHT22;50167;47.958;21.780;2022-07-10T09:26:57;27.21;34.73
63976;DHT22;50167;47.958;21.780;2022-07-10T09:29:15;27.27;34.70
63976;DHT22;50167;47.958;21.780;2022-07-10T09:31:58;27.18;34.44
63976;DHT22;50167;47.958;21.780;2022-07-10T09:37:26;26.94;35.08
63976;DHT22;50167;47.958;21.780;2022-07-10T09:40:03;27.07;34.54
63976;DHT22;50167;47.958;21.780;2022-07-10T09:42:32;27.20;33.97
63976;DHT22;50167;47.958;21.780;2022-07-10T09:47:43;27.32;33.16
63976;DHT22;50167;47.958;21.780;2022-07-10T09:50:21;27.45;32.30
63976;DHT22;50167;47.958;21.780;2022-07-10T09:52:52;27.58;32.14
63976;DHT22;50167;47.958;21.780;2022-07-10T09:55:23;27.75;31.41
63976;DHT22;50167;47.958;21.780;2022-07-10T09:57:59;28.12;32.59
63976;DHT22;50167;47.958;21.780;2022-07-10T10:00:27;28.48;32.26
63976;DHT22;50167;47.958;21.780;2022-07-10T10:02:56;28.61;29.79
63976;DHT22;50167;47.958;21.780;2022-07-10T10:05:31;28.54;30.32
63976;DHT22;50167;47.958;21.780;2022-07-10T10:07:52;28.48;30.94
63976;DHT22;50167;47.958;21.780;2022-07-10T10:10:19;28.54;31.32
63976;DHT22;50167;47.958;21.780;2022-07-10T10:12:48;28.71;29.93
63976;DHT22;50167;47.958;21.780;2022-07-10T10:15:15;28.78;30.42
63976;DHT22;50167;47.958;21.780;2022-07-10T10:17:42;28.72;30.42
63976;DHT22;50167;47.958;21.780;2022-07-10T10:20:09;28.55;30.40
63976;DHT22;50167;47.958;21.780;2022-07-10T10:22:54;28.40;31.12
63976;DHT22;50167;47.958;21.780;2022-07-10T10:25:21;28.40;31.26
63976;DHT22;50167;47.958;21.780;2022-07-10T10:27:48;28.50;31.17
63976;DHT22;50167;47.958;21.780;2022-07-10T10:30:15;28.68;30.97
63976;DHT22;50167;47.958;21.780;2022-07-10T10:32:41;28.83;30.90
63976;DHT22;50167;47.958;21.780;2022-07-10T10:35:07;28.81;30.73
63976;DHT22;50167;47.958;21.780;2022-07-10T10:37:37;28.61;30.98
63976;DHT22;50167;47.958;21.780;2022-07-10T10:40:06;28.34;31.29
63976;DHT22;50167;47.958;21.780;2022-07-10T10:42:40;28.06;31.55
63976;DHT22;50167;47.958;21.780;2022-07-10T10:45:42;27.82;31.53
63976;DHT22;50167;47.958;21.780;2022-07-10T10:48:12;27.66;31.47
63976;DHT22;50167;47.958;21.780;2022-07-10T10:50:50;27.42;32.24
63976;DHT22;50167;47.958;21.780;2022-07-10T10:53:19;27.17;32.93
63976;DHT22;50167;47.958;21.780;2022-07-10T10:58:37;26.63;34.07
63976;DHT22;50167;47.958;21.780;2022-07-10T11:01:04;26.42;34.19
63976;DHT22;50167;47.958;21.780;2022-07-10T11:03:31;26.41;33.91
63976;DHT22;50167;47.958;21.780;2022-07-10T11:05:57;26.42;33.35
63976;DHT22;50167;47.958;21.780;2022-07-10T11:08:40;26.36;33.30
63976;DHT22;50167;47.958;21.780;2022-07-10T11:14:00;26.00;33.04
63976;DHT22;50167;47.958;21.780;2022-07-10T11:16:27;25.75;33.30
63976;DHT22;50167;47.958;21.780;2022-07-10T11:18:55;25.52;33.68
63976;DHT22;50167;47.958;21.780;2022-07-10T11:21:23;25.26;33.81
63976;DHT22;50167;47.958;21.780;2022-07-10T11:24:06;25.08;34.38
63976;DHT22;50167;47.958;21.780;2022-07-10T11:29:19;24.47;38.00
63976;DHT22;50167;47.958;21.780;2022-07-10T11:31:53;23.96;40.24
63976;DHT22;50167;47.958;21.780;2022-07-10T11:34:19;23.30;41.41
63976;DHT22;50167;47.958;21.780;2022-07-10T11:36:47;22.86;43.27
63976;DHT22;50167;47.958;21.780;2022-07-10T11:39:13;22.30;45.23
63976;DHT22;50167;47.958;21.780;2022-07-10T11:41:43;21.83;47.44
63976;DHT22;50167;47.958;21.780;2022-07-10T11:44:17;21.34;49.77
63976;DHT22;50167;47.958;21.780;2022-07-10T11:46:45;20.91;55.14
63976;DHT22;50167;47.958;21.780;2022-07-10T11:49:13;20.42;56.56
63976;DHT22;50167;47.958;21.780;2022-07-10T11:51:40;19.97;56.42
63976;DHT22;50167;47.958;21.780;2022-07-10T11:54:12;19.70;59.05
63976;DHT22;50167;47.958;21.780;2022-07-10T11:56:42;19.49;60.78
63976;DHT22;50167;47.958;21.780;2022-07-10T11:59:10;19.32;60.37
63976;DHT22;50167;47.958;21.780;2022-07-10T12:01:49;19.17;61.61
63976;DHT22;50167;47.958;21.780;2022-07-10T12:04:12;19.04;61.60
63976;DHT22;50167;47.958;21.780;2022-07-10T12:06:40;19.36;61.54
63976;DHT22;50167;47.958;21.780;2022-07-10T12:09:08;20.79;57.22
63976;DHT22;50167;47.958;21.780;2022-07-10T12:11:34;20.53;56.89
63976;DHT22;50167;47.958;21.780;2022-07-10T12:14:20;19.93;58.22
63976;DHT22;50167;47.958;21.780;2022-07-10T12:16:50;19.32;60.34
63976;DHT22;50167;47.958;21.780;2022-07-10T12:19:25;18.98;60.85
63976;DHT22;50167;47.958;21.780;2022-07-10T12:21:53;19.07;62.78
63976;DHT22;50167;47.958;21.780;2022-07-10T12:24:20;20.39;60.13
63976;DHT22;50167;47.958;21.780;2022-07-10T12:26:46;20.42;57.17
63976;DHT22;50167;47.958;21.780;2022-07-10T12:29:21;19.77;58.40
63976;DHT22;50167;47.958;21.780;2022-07-10T12:31:49;19.18;60.65
63976;DHT22;50167;47.958;21.780;2022-07-10T12:34:16;18.80;60.46
63976;DHT22;50167;47.958;21.780;2022-07-10T12:36:52;18.53;62.14
63976;DHT22;50167;47.958;21.780;2022-07-10T12:39:23;18.36;62.49
63976;DHT22;50167;47.958;21.780;2022-07-10T12:42:03;19.42;60.82
63976;DHT22;50167;47.958;21.780;2022-07-10T12:44:43;20.21;57.11
63976;DHT22;50167;47.958;21.780;2022-07-10T12:47:17;19.73;55.75
63976;DHT22;50167;47.958;21.780;2022-07-10T12:52:32;18.81;59.38
63976;DHT22;50167;47.958;21.780;2022-07-10T12:55:13;18.53;60.25
63976;DHT22;50167;47.958;21.780;2022-07-10T12:57:56;18.26;60.84
63976;DHT22;50167;47.958;21.780;2022-07-10T13:00:24;18.07;61.25
63976;DHT22;50167;47.958;21.780;2022-07-10T13:10:55;21.41;67.84
63976;DHT22;50167;47.958;21.780;2022-07-10T13:13:21;21.95;65.32
63976;DHT22;50167;47.958;21.780;2022-07-10T13:15:49;22.38;64.16
63976;DHT22;50167;47.958;21.780;2022-07-10T13:18:25;22.81;62.57
63976;DHT22;50167;47.958;21.780;2022-07-10T13:20:49;22.83;57.07
63976;DHT22;50167;47.958;21.780;2022-07-10T13:23:16;22.07;53.87
63976;DHT22;50167;47.958;21.780;2022-07-10T13:25:44;21.36;52.48
63976;DHT22;50167;47.958;21.780;2022-07-10T13:28:10;20.84;52.18
63976;DHT22;50167;47.958;21.780;2022-07-10T13:30:41;20.43;51.62
63976;DHT22;50167;47.958;21.780;2022-07-10T13:33:07;20.17;53.21
63976;DHT22;50167;47.958;21.780;2022-07-10T13:35:34;19.96;57.14
63976;DHT22;50167;47.958;21.780;2022-07-10T13:38:01;19.72;60.69
63976;DHT22;50167;47.958;21.780;2022-07-10T13:40:32;19.45;58.50
63976;DHT22;50167;47.958;21.780;2022-07-10T13:43:05;19.27;57.37
63976;DHT22;50167;47.958;21.780;2022-07-10T13:45:35;19.11;58.04
63976;DHT22;50167;47.958;21.780;2022-07-10T13:48:06;18.97;58.81
63976;DHT22;50167;47.958;21.780;2022-07-10T13:50:31;18.87;58.18
63976;DHT22;50167;47.958;21.780;2022-07-10T13:52:58;18.81;58.19
63976;DHT22;50167;47.958;21.780;2022-07-10T13:55:24;18.77;58.65
63976;DHT22;50167;47.958;21.780;2022-07-10T13:57:50;18.73;59.18
63976;DHT22;50167;47.958;21.780;2022-07-10T14:00:16;18.70;61.02
63976;DHT22;50167;47.958;21.780;2022-07-10T14:02:42;18.64;59.83
63976;DHT22;50167;47.958;21.780;2022-07-10T14:05:08;18.67;60.77
63976;DHT22;50167;47.958;21.780;2022-07-10T14:07:35;18.70;60.12
63976;DHT22;50167;47.958;21.780;2022-07-10T14:10:02;18.73;60.16
63976;DHT22;50167;47.958;21.780;2022-07-10T14:12:29;18.87;59.95
63976;DHT22;50167;47.958;21.780;2022-07-10T14:14:55;19.01;59.85
63976;DHT22;50167;47.958;21.780;2022-07-10T14:17:22;19.14;60.14
63976;DHT22;50167;47.958;21.780;2022-07-10T14:19:50;19.31;60.20
63976;DHT22;50167;47.958;21.780;2022-07-10T14:22:16;19.39;60.55
63976;DHT22;50167;47.958;21.780;2022-07-10T14:24:42;19.97;68.51
63976;DHT22;50167;47.958;21.780;2022-07-10T14:27:08;21.57;72.90
63976;DHT22;50167;47.958;21.780;2022-07-10T14:29:36;22.71;68.21
63976;DHT22;50167;47.958;21.780;2022-07-10T14:32:03;23.46;65.33
63976;DHT22;50167;47.958;21.780;2022-07-10T14:34:29;24.01;61.88
63976;DHT22;50167;47.958;21.780;2022-07-10T14:36:57;24.49;59.41
63976;DHT22;50167;47.958;21.780;2022-07-10T14:39:24;24.15;54.39
63976;DHT22;50167;47.958;21.780;2022-07-10T14:41:50;23.40;52.97
63976;DHT22;50167;47.958;21.780;2022-07-10T14:44:18;22.81;52.68
63976;DHT22;50167;47.958;21.780;2022-07-10T14:46:43;22.41;53.63
63976;DHT22;50167;47.958;21.780;2022-07-10T14:49:09;22.10;55.04
63976;DHT22;50167;47.958;21.780;2022-07-10T14:51:35;21.83;53.06
63976;DHT22;50167;47.958;21.780;2022-07-10T14:54:04;21.73;53.70
63976;DHT22;50167;47.958;21.780;2022-07-10T14:56:30;21.89;55.76
63976;DHT22;50167;47.958;21.780;2022-07-10T14:58:56;22.06;57.08
63976;DHT22;50167;47.958;21.780;2022-07-10T15:01:22;22.03;56.48
63976;DHT22;50167;47.958;21.780;2022-07-10T15:03:48;21.91;56.94
63976;DHT22;50167;47.958;21.780;2022-07-10T15:06:14;21.73;55.27
63976;DHT22;50167;47.958;21.780;2022-07-10T15:08:40;21.59;55.58
63976;DHT22;50167;47.958;21.780;2022-07-10T15:11:06;21.48;55.91
63976;DHT22;50167;47.958;21.780;2022-07-10T15:13:32;21.37;55.46
63976;DHT22;50167;47.958;21.780;2022-07-10T15:16:04;21.25;55.37
63976;DHT22;50167;47.958;21.780;2022-07-10T15:18:30;21.22;56.37
63976;DHT22;50167;47.958;21.780;2022-07-10T15:20:56;21.37;55.91
63976;DHT22;50167;47.958;21.780;2022-07-10T15:23:30;21.41;55.51
63976;DHT22;50167;47.958;21.780;2022-07-10T15:25:56;21.54;55.42
63976;DHT22;50167;47.958;21.780;2022-07-10T15:28:22;22.20;55.58
63976;DHT22;50167;47.958;21.780;2022-07-10T15:30:56;22.68;54.01
63976;DHT22;50167;47.958;21.780;2022-07-10T15:33:25;22.89;52.95
63976;DHT22;50167;47.958;21.780;2022-07-10T15:35:51;22.99;52.57
63976;DHT22;50167;47.958;21.780;2022-07-10T15:38:19;23.02;51.69
63976;DHT22;50167;47.958;21.780;2022-07-10T15:40:45;22.96;51.45
63976;DHT22;50167;47.958;21.780;2022-07-10T15:43:11;23.05;51.66
63976;DHT22;50167;47.958;21.780;2022-07-10T15:45:37;23.19;51.45